sensor_id;sensor_type;location;lat;lon;timestamp;P1;durP1;ratioP1;P2;durP2;ratioP2
50483;SDS011;36409;52.168;20.878;2023-02-17T00:01:50;85.87;;;41.90;;
50483;SDS011;36409;52.168;20.878;2023-02-17T00:04:19;84.10;;;42.23;;
50483;SDS011;36409;52.168;20.878;2023-02-17T00:06:48;86.43;;;44.77;;
50483;SDS011;36409;52.168;20.878;2023-02-17T00:09:17;86.17;;;45.13;;
50483;SDS011;36409;52.168;20.878;2023-02-17T00:11:47;83.47;;;43.70;;
50483;SDS011;36409;52.168;20.878;2023-02-17T00:14:17;85.30;;;44.03;;
50483;SDS011;36409;52.168;20.878;2023-02-17T00:16:46;89.43;;;43.63;;
50483;SDS011;36409;52.168;20.878;2023-02-17T00:19:17;81.97;;;42.93;;
50483;SDS011;36409;52.168;20.878;2023-02-17T00:21:53;83.73;;;42.43;;
50483;SDS011;36409;52.168;20.878;2023-02-17T00:24:25;87.40;;;44.43;;
50483;SDS011;36409;52.168;20.878;2023-02-17T00:26:58;86.10;;;45.03;;
50483;SDS011;36409;52.168;20.878;2023-02-17T00:29:29;85.80;;;43.10;;
50483;SDS011;36409;52.168;20.878;2023-02-17T00:32:01;88.77;;;43.60;;
50483;SDS011;36409;52.168;20.878;2023-02-17T00:34:30;87.27;;;42.87;;
50483;SDS011;36409;52.168;20.878;2023-02-17T00:37:00;80.57;;;41.87;;
50483;SDS011;36409;52.168;20.878;2023-02-17T00:39:29;84.60;;;43.90;;
50483;SDS011;36409;52.168;20.878;2023-02-17T00:42:00;87.17;;;43.10;;
50483;SDS011;36409;52.168;20.878;2023-02-17T00:44:29;81.47;;;42.63;;
50483;SDS011;36409;52.168;20.878;2023-02-17T00:46:59;89.10;;;42.17;;
50483;SDS011;36409;52.168;20.878;2023-02-17T00:49:30;77.37;;;40.13;;
50483;SDS011;36409;52.168;20.878;2023-02-17T00:51:59;87.77;;;43.13;;
50483;SDS011;36409;52.168;20.878;2023-02-17T00:54:28;78.90;;;41.50;;
50483;SDS011;36409;52.168;20.878;2023-02-17T00:56:58;84.80;;;43.03;;
50483;SDS011;36409;52.168;20.878;2023-02-17T00:59:27;79.20;;;41.00;;
50483;SDS011;36409;52.168;20.878;2023-02-17T01:01:56;87.03;;;43.67;;
50483;SDS011;36409;52.168;20.878;2023-02-17T01:04:25;81.83;;;41.97;;
50483;SDS011;36409;52.168;20.878;2023-02-17T01:06:55;76.97;;;41.00;;
50483;SDS011;36409;52.168;20.878;2023-02-17T01:09:24;81.17;;;42.10;;
50483;SDS011;36409;52.168;20.878;2023-02-17T01:11:55;88.03;;;43.87;;
50483;SDS011;36409;52.168;20.878;2023-02-17T01:14:24;83.73;;;42.53;;
50483;SDS011;36409;52.168;20.878;2023-02-17T01:16:55;82.23;;;42.53;;
50483;SDS011;36409;52.168;20.878;2023-02-17T01:19:24;87.97;;;45.73;;
50483;SDS011;36409;52.168;20.878;2023-02-17T01:21:53;98.17;;;46.03;;
50483;SDS011;36409;52.168;20.878;2023-02-17T01:24:23;87.43;;;43.47;;
50483;SDS011;36409;52.168;20.878;2023-02-17T01:26:52;87.40;;;44.23;;
50483;SDS011;36409;52.168;20.878;2023-02-17T01:29:21;86.10;;;43.23;;
50483;SDS011;36409;52.168;20.878;2023-02-17T01:31:50;86.17;;;41.87;;
50483;SDS011;36409;52.168;20.878;2023-02-17T01:34:21;85.67;;;43.03;;
50483;SDS011;36409;52.168;20.878;2023-02-17T01:36:50;78.47;;;41.87;;
50483;SDS011;36409;52.168;20.878;2023-02-17T01:39:19;95.80;;;43.77;;
50483;SDS011;36409;52.168;20.878;2023-02-17T01:41:48;82.07;;;41.93;;
50483;SDS011;36409;52.168;20.878;2023-02-17T01:44:20;85.70;;;42.80;;
50483;SDS011;36409;52.168;20.878;2023-02-17T01:46:54;84.77;;;41.10;;
50483;SDS011;36409;52.168;20.878;2023-02-17T01:49:24;85.67;;;41.83;;
50483;SDS011;36409;52.168;20.878;2023-02-17T01:52:02;86.37;;;44.13;;
50483;SDS011;36409;52.168;20.878;2023-02-17T01:54:38;86.90;;;43.40;;
50483;SDS011;36409;52.168;20.878;2023-02-17T01:57:18;88.33;;;45.37;;
50483;SDS011;36409;52.168;20.878;2023-02-17T01:59:52;85.40;;;41.65;;
50483;SDS011;36409;52.168;20.878;2023-02-17T02:02:24;78.07;;;41.93;;
50483;SDS011;36409;52.168;20.878;2023-02-17T02:04:56;87.53;;;43.20;;
50483;SDS011;36409;52.168;20.878;2023-02-17T02:07:25;78.70;;;41.03;;
50483;SDS011;36409;52.168;20.878;2023-02-17T02:10:01;77.90;;;41.70;;
50483;SDS011;36409;52.168;20.878;2023-02-17T02:12:35;85.20;;;42.30;;
50483;SDS011;36409;52.168;20.878;2023-02-17T02:15:08;80.93;;;41.20;;
50483;SDS011;36409;52.168;20.878;2023-02-17T02:17:40;77.60;;;40.87;;
50483;SDS011;36409;52.168;20.878;2023-02-17T02:23:15;77.17;;;40.03;;
50483;SDS011;36409;52.168;20.878;2023-02-17T02:29:23;78.40;;;40.50;;
50483;SDS011;36409;52.168;20.878;2023-02-17T02:32:39;86.07;;;42.53;;
50483;SDS011;36409;52.168;20.878;2023-02-17T02:35:21;78.83;;;43.00;;
50483;SDS011;36409;52.168;20.878;2023-02-17T02:37:59;79.03;;;41.10;;
50483;SDS011;36409;52.168;20.878;2023-02-17T02:40:35;80.23;;;41.97;;
50483;SDS011;36409;52.168;20.878;2023-02-17T02:43:09;77.37;;;40.57;;
50483;SDS011;36409;52.168;20.878;2023-02-17T02:45:39;75.27;;;39.57;;
50483;SDS011;36409;52.168;20.878;2023-02-17T02:48:09;76.35;;;40.45;;
50483;SDS011;36409;52.168;20.878;2023-02-17T02:50:42;77.97;;;41.00;;
50483;SDS011;36409;52.168;20.878;2023-02-17T02:53:39;77.03;;;39.53;;
50483;SDS011;36409;52.168;20.878;2023-02-17T02:59:20;81.55;;;40.33;;
50483;SDS011;36409;52.168;20.878;2023-02-17T03:02:02;82.20;;;40.53;;
50483;SDS011;36409;52.168;20.878;2023-02-17T03:04:41;74.00;;;39.93;;
50483;SDS011;36409;52.168;20.878;2023-02-17T03:07:21;74.20;;;39.47;;
50483;SDS011;36409;52.168;20.878;2023-02-17T03:09:57;77.77;;;40.70;;
50483;SDS011;36409;52.168;20.878;2023-02-17T03:12:29;77.00;;;38.70;;
50483;SDS011;36409;52.168;20.878;2023-02-17T03:15:03;76.47;;;38.30;;
50483;SDS011;36409;52.168;20.878;2023-02-17T03:17:43;75.33;;;39.00;;
50483;SDS011;36409;52.168;20.878;2023-02-17T03:20:13;76.23;;;40.80;;
50483;SDS011;36409;52.168;20.878;2023-02-17T03:22:44;74.83;;;39.40;;
50483;SDS011;36409;52.168;20.878;2023-02-17T03:25:18;79.55;;;40.20;;
50483;SDS011;36409;52.168;20.878;2023-02-17T03:27:49;79.20;;;41.17;;
50483;SDS011;36409;52.168;20.878;2023-02-17T03:30:19;71.17;;;39.47;;
50483;SDS011;36409;52.168;20.878;2023-02-17T03:32:48;74.97;;;40.43;;
50483;SDS011;36409;52.168;20.878;2023-02-17T03:35:17;80.33;;;41.33;;
50483;SDS011;36409;52.168;20.878;2023-02-17T03:37:50;75.30;;;40.73;;
50483;SDS011;36409;52.168;20.878;2023-02-17T03:40:24;84.20;;;41.20;;
50483;SDS011;36409;52.168;20.878;2023-02-17T03:42:54;82.10;;;40.73;;
50483;SDS011;36409;52.168;20.878;2023-02-17T03:45:25;79.40;;;40.27;;
50483;SDS011;36409;52.168;20.878;2023-02-17T03:47:58;75.40;;;40.73;;
50483;SDS011;36409;52.168;20.878;2023-02-17T03:50:30;75.27;;;40.83;;
50483;SDS011;36409;52.168;20.878;2023-02-17T03:53:03;74.70;;;41.70;;
50483;SDS011;36409;52.168;20.878;2023-02-17T03:55:32;81.37;;;41.33;;
50483;SDS011;36409;52.168;20.878;2023-02-17T03:58:05;70.90;;;38.30;;
50483;SDS011;36409;52.168;20.878;2023-02-17T04:00:37;72.17;;;37.97;;
50483;SDS011;36409;52.168;20.878;2023-02-17T04:03:08;84.20;;;43.33;;
50483;SDS011;36409;52.168;20.878;2023-02-17T04:05:40;82.97;;;42.87;;
50483;SDS011;36409;52.168;20.878;2023-02-17T04:08:22;80.67;;;42.80;;
50483;SDS011;36409;52.168;20.878;2023-02-17T04:10:52;80.57;;;42.10;;
50483;SDS011;36409;52.168;20.878;2023-02-17T04:13:24;79.67;;;41.77;;
50483;SDS011;36409;52.168;20.878;2023-02-17T04:15:56;79.63;;;42.33;;
50483;SDS011;36409;52.168;20.878;2023-02-17T04:18:28;82.37;;;43.87;;
50483;SDS011;36409;52.168;20.878;2023-02-17T04:20:59;79.10;;;42.87;;
50483;SDS011;36409;52.168;20.878;2023-02-17T04:23:36;76.83;;;41.73;;
50483;SDS011;36409;52.168;20.878;2023-02-17T04:26:08;88.97;;;44.00;;
50483;SDS011;36409;52.168;20.878;2023-02-17T04:28:38;85.43;;;44.93;;
50483;SDS011;36409;52.168;20.878;2023-02-17T04:31:09;91.13;;;45.17;;
50483;SDS011;36409;52.168;20.878;2023-02-17T04:33:39;96.80;;;47.63;;
50483;SDS011;36409;52.168;20.878;2023-02-17T04:36:09;85.63;;;43.73;;
50483;SDS011;36409;52.168;20.878;2023-02-17T04:38:39;86.23;;;46.43;;
50483;SDS011;36409;52.168;20.878;2023-02-17T04:41:09;90.40;;;46.90;;
50483;SDS011;36409;52.168;20.878;2023-02-17T04:43:41;86.60;;;45.27;;
50483;SDS011;36409;52.168;20.878;2023-02-17T04:46:19;91.40;;;45.73;;
50483;SDS011;36409;52.168;20.878;2023-02-17T04:49:07;81.20;;;41.83;;
50483;SDS011;36409;52.168;20.878;2023-02-17T04:51:37;80.97;;;42.50;;
50483;SDS011;36409;52.168;20.878;2023-02-17T04:54:06;86.47;;;45.67;;
50483;SDS011;36409;52.168;20.878;2023-02-17T04:56:42;89.40;;;45.03;;
50483;SDS011;36409;52.168;20.878;2023-02-17T04:59:12;84.17;;;43.50;;
50483;SDS011;36409;52.168;20.878;2023-02-17T05:01:44;87.43;;;45.93;;
50483;SDS011;36409;52.168;20.878;2023-02-17T05:04:17;86.47;;;44.87;;
50483;SDS011;36409;52.168;20.878;2023-02-17T05:06:47;90.13;;;45.10;;
50483;SDS011;36409;52.168;20.878;2023-02-17T05:09:18;90.63;;;47.07;;
50483;SDS011;36409;52.168;20.878;2023-02-17T05:11:54;87.55;;;45.25;;
50483;SDS011;36409;52.168;20.878;2023-02-17T05:14:27;91.73;;;47.30;;
50483;SDS011;36409;52.168;20.878;2023-02-17T05:16:56;90.97;;;45.70;;
50483;SDS011;36409;52.168;20.878;2023-02-17T05:19:28;84.33;;;44.67;;
50483;SDS011;36409;52.168;20.878;2023-02-17T05:21:57;93.93;;;45.93;;
50483;SDS011;36409;52.168;20.878;2023-02-17T05:24:26;86.20;;;47.57;;
50483;SDS011;36409;52.168;20.878;2023-02-17T05:26:56;88.33;;;46.43;;
50483;SDS011;36409;52.168;20.878;2023-02-17T05:29:25;93.90;;;46.37;;
50483;SDS011;36409;52.168;20.878;2023-02-17T05:31:55;90.40;;;45.40;;
50483;SDS011;36409;52.168;20.878;2023-02-17T05:34:24;84.90;;;44.10;;
50483;SDS011;36409;52.168;20.878;2023-02-17T05:36:53;88.37;;;47.03;;
50483;SDS011;36409;52.168;20.878;2023-02-17T05:39:26;90.10;;;46.27;;
50483;SDS011;36409;52.168;20.878;2023-02-17T05:41:55;88.47;;;45.60;;
50483;SDS011;36409;52.168;20.878;2023-02-17T05:44:26;90.63;;;45.63;;
50483;SDS011;36409;52.168;20.878;2023-02-17T05:46:56;87.53;;;44.73;;
50483;SDS011;36409;52.168;20.878;2023-02-17T05:49:25;86.33;;;45.80;;
50483;SDS011;36409;52.168;20.878;2023-02-17T05:51:58;90.63;;;44.53;;
50483;SDS011;36409;52.168;20.878;2023-02-17T05:54:26;83.83;;;43.40;;
50483;SDS011;36409;52.168;20.878;2023-02-17T05:56:56;86.90;;;46.03;;
50483;SDS011;36409;52.168;20.878;2023-02-17T05:59:25;90.63;;;46.90;;
50483;SDS011;36409;52.168;20.878;2023-02-17T06:01:55;90.47;;;47.00;;
50483;SDS011;36409;52.168;20.878;2023-02-17T06:04:24;91.63;;;46.07;;
50483;SDS011;36409;52.168;20.878;2023-02-17T06:06:53;88.17;;;47.37;;
50483;SDS011;36409;52.168;20.878;2023-02-17T06:09:23;92.43;;;46.23;;
50483;SDS011;36409;52.168;20.878;2023-02-17T06:11:53;94.60;;;48.65;;
50483;SDS011;36409;52.168;20.878;2023-02-17T06:14:27;87.40;;;46.03;;
50483;SDS011;36409;52.168;20.878;2023-02-17T06:16:56;96.23;;;48.20;;
50483;SDS011;36409;52.168;20.878;2023-02-17T06:19:28;97.00;;;48.30;;
50483;SDS011;36409;52.168;20.878;2023-02-17T06:21:57;86.60;;;45.50;;
50483;SDS011;36409;52.168;20.878;2023-02-17T06:24:27;89.70;;;46.93;;
50483;SDS011;36409;52.168;20.878;2023-02-17T06:26:59;88.87;;;45.20;;
50483;SDS011;36409;52.168;20.878;2023-02-17T06:29:28;90.93;;;46.50;;
50483;SDS011;36409;52.168;20.878;2023-02-17T06:31:58;83.60;;;44.87;;
50483;SDS011;36409;52.168;20.878;2023-02-17T06:34:27;84.07;;;44.93;;
50483;SDS011;36409;52.168;20.878;2023-02-17T06:36:59;89.30;;;46.27;;
50483;SDS011;36409;52.168;20.878;2023-02-17T06:39:37;82.90;;;44.00;;
50483;SDS011;36409;52.168;20.878;2023-02-17T06:42:10;84.83;;;42.63;;
50483;SDS011;36409;52.168;20.878;2023-02-17T06:44:39;81.97;;;42.90;;
50483;SDS011;36409;52.168;20.878;2023-02-17T06:47:09;83.33;;;44.07;;
50483;SDS011;36409;52.168;20.878;2023-02-17T06:49:38;79.07;;;43.63;;
50483;SDS011;36409;52.168;20.878;2023-02-17T06:52:08;85.27;;;43.30;;
50483;SDS011;36409;52.168;20.878;2023-02-17T06:54:37;83.83;;;44.00;;
50483;SDS011;36409;52.168;20.878;2023-02-17T06:57:07;82.10;;;41.93;;
50483;SDS011;36409;52.168;20.878;2023-02-17T06:59:38;77.40;;;42.70;;
50483;SDS011;36409;52.168;20.878;2023-02-17T07:02:09;86.40;;;45.53;;
50483;SDS011;36409;52.168;20.878;2023-02-17T07:04:39;79.17;;;42.73;;
50483;SDS011;36409;52.168;20.878;2023-02-17T07:07:08;82.83;;;42.27;;
50483;SDS011;36409;52.168;20.878;2023-02-17T07:09:39;81.80;;;43.80;;
50483;SDS011;36409;52.168;20.878;2023-02-17T07:12:09;75.93;;;41.90;;
50483;SDS011;36409;52.168;20.878;2023-02-17T07:14:39;77.13;;;40.07;;
50483;SDS011;36409;52.168;20.878;2023-02-17T07:17:08;77.07;;;42.53;;
50483;SDS011;36409;52.168;20.878;2023-02-17T07:19:37;82.80;;;42.30;;
50483;SDS011;36409;52.168;20.878;2023-02-17T07:22:09;76.93;;;40.93;;
50483;SDS011;36409;52.168;20.878;2023-02-17T07:24:41;83.07;;;46.83;;
50483;SDS011;36409;52.168;20.878;2023-02-17T07:27:10;78.30;;;44.70;;
50483;SDS011;36409;52.168;20.878;2023-02-17T07:29:40;76.47;;;41.77;;
50483;SDS011;36409;52.168;20.878;2023-02-17T07:32:09;91.67;;;53.70;;
50483;SDS011;36409;52.168;20.878;2023-02-17T07:34:40;72.43;;;43.03;;
50483;SDS011;36409;52.168;20.878;2023-02-17T07:37:10;74.10;;;40.20;;
50483;SDS011;36409;52.168;20.878;2023-02-17T07:39:39;91.53;;;53.37;;
50483;SDS011;36409;52.168;20.878;2023-02-17T07:42:08;110.77;;;68.33;;
50483;SDS011;36409;52.168;20.878;2023-02-17T07:44:38;74.07;;;41.60;;
50483;SDS011;36409;52.168;20.878;2023-02-17T07:47:10;65.60;;;38.40;;
50483;SDS011;36409;52.168;20.878;2023-02-17T07:49:39;69.87;;;37.33;;
50483;SDS011;36409;52.168;20.878;2023-02-17T07:52:08;63.85;;;37.30;;
50483;SDS011;36409;52.168;20.878;2023-02-17T07:54:37;68.70;;;37.67;;
50483;SDS011;36409;52.168;20.878;2023-02-17T07:57:06;67.60;;;36.30;;
50483;SDS011;36409;52.168;20.878;2023-02-17T07:59:35;68.77;;;37.07;;
50483;SDS011;36409;52.168;20.878;2023-02-17T08:02:04;70.67;;;37.57;;
50483;SDS011;36409;52.168;20.878;2023-02-17T08:04:33;72.27;;;37.27;;
50483;SDS011;36409;52.168;20.878;2023-02-17T08:07:02;64.07;;;35.80;;
50483;SDS011;36409;52.168;20.878;2023-02-17T08:09:33;62.73;;;34.83;;
50483;SDS011;36409;52.168;20.878;2023-02-17T08:12:21;59.00;;;34.70;;
50483;SDS011;36409;52.168;20.878;2023-02-17T08:15:09;64.40;;;35.63;;
50483;SDS011;36409;52.168;20.878;2023-02-17T08:17:42;67.95;;;36.50;;
50483;SDS011;36409;52.168;20.878;2023-02-17T08:20:11;58.97;;;34.37;;
50483;SDS011;36409;52.168;20.878;2023-02-17T08:22:42;57.17;;;33.80;;
50483;SDS011;36409;52.168;20.878;2023-02-17T08:25:11;62.10;;;36.00;;
50483;SDS011;36409;52.168;20.878;2023-02-17T08:27:40;60.70;;;34.90;;
50483;SDS011;36409;52.168;20.878;2023-02-17T08:30:10;63.43;;;35.00;;
50483;SDS011;36409;52.168;20.878;2023-02-17T08:32:40;58.03;;;32.97;;
50483;SDS011;36409;52.168;20.878;2023-02-17T08:35:11;61.63;;;34.33;;
50483;SDS011;36409;52.168;20.878;2023-02-17T08:37:40;60.57;;;33.37;;
50483;SDS011;36409;52.168;20.878;2023-02-17T08:40:10;55.77;;;32.17;;
50483;SDS011;36409;52.168;20.878;2023-02-17T08:42:39;61.65;;;32.55;;
50483;SDS011;36409;52.168;20.878;2023-02-17T08:45:11;57.90;;;33.10;;
50483;SDS011;36409;52.168;20.878;2023-02-17T08:47:44;61.43;;;34.27;;
50483;SDS011;36409;52.168;20.878;2023-02-17T08:50:17;58.80;;;34.37;;
50483;SDS011;36409;52.168;20.878;2023-02-17T08:52:46;56.17;;;32.80;;
50483;SDS011;36409;52.168;20.878;2023-02-17T08:55:16;58.13;;;32.83;;
50483;SDS011;36409;52.168;20.878;2023-02-17T08:57:46;55.40;;;32.33;;
50483;SDS011;36409;52.168;20.878;2023-02-17T09:00:20;53.40;;;31.37;;
50483;SDS011;36409;52.168;20.878;2023-02-17T09:02:52;57.80;;;33.47;;
50483;SDS011;36409;52.168;20.878;2023-02-17T09:05:21;52.70;;;32.03;;
50483;SDS011;36409;52.168;20.878;2023-02-17T09:07:54;62.10;;;33.90;;
50483;SDS011;36409;52.168;20.878;2023-02-17T09:10:24;52.97;;;31.73;;
50483;SDS011;36409;52.168;20.878;2023-02-17T09:12:53;57.47;;;32.53;;
50483;SDS011;36409;52.168;20.878;2023-02-17T09:15:22;59.50;;;33.67;;
50483;SDS011;36409;52.168;20.878;2023-02-17T09:17:52;62.40;;;34.50;;
50483;SDS011;36409;52.168;20.878;2023-02-17T09:20:21;66.60;;;38.60;;
50483;SDS011;36409;52.168;20.878;2023-02-17T09:22:53;53.13;;;32.30;;
50483;SDS011;36409;52.168;20.878;2023-02-17T09:25:22;62.30;;;34.00;;
50483;SDS011;36409;52.168;20.878;2023-02-17T09:27:54;58.00;;;34.80;;
50483;SDS011;36409;52.168;20.878;2023-02-17T09:30:26;57.55;;;33.75;;
50483;SDS011;36409;52.168;20.878;2023-02-17T09:32:56;57.20;;;35.10;;
50483;SDS011;36409;52.168;20.878;2023-02-17T09:35:26;55.15;;;30.85;;
50483;SDS011;36409;52.168;20.878;2023-02-17T09:37:55;56.20;;;32.67;;
50483;SDS011;36409;52.168;20.878;2023-02-17T09:40:31;57.50;;;32.23;;
50483;SDS011;36409;52.168;20.878;2023-02-17T09:43:11;59.13;;;33.20;;
50483;SDS011;36409;52.168;20.878;2023-02-17T09:45:46;56.60;;;32.90;;
50483;SDS011;36409;52.168;20.878;2023-02-17T09:48:20;53.93;;;31.87;;
50483;SDS011;36409;52.168;20.878;2023-02-17T09:50:53;54.73;;;32.77;;
50483;SDS011;36409;52.168;20.878;2023-02-17T09:53:26;58.80;;;34.17;;
50483;SDS011;36409;52.168;20.878;2023-02-17T09:56:00;58.13;;;34.67;;
50483;SDS011;36409;52.168;20.878;2023-02-17T09:58:37;60.37;;;33.37;;
50483;SDS011;36409;52.168;20.878;2023-02-17T10:01:12;57.40;;;32.48;;
50483;SDS011;36409;52.168;20.878;2023-02-17T10:03:52;53.23;;;31.10;;
50483;SDS011;36409;52.168;20.878;2023-02-17T10:06:30;56.80;;;33.17;;
50483;SDS011;36409;52.168;20.878;2023-02-17T10:09:02;55.40;;;32.20;;
50483;SDS011;36409;52.168;20.878;2023-02-17T10:11:41;57.33;;;34.97;;
50483;SDS011;36409;52.168;20.878;2023-02-17T10:14:23;59.50;;;33.57;;
50483;SDS011;36409;52.168;20.878;2023-02-17T10:16:59;55.13;;;31.57;;
50483;SDS011;36409;52.168;20.878;2023-02-17T10:19:37;61.13;;;33.23;;
50483;SDS011;36409;52.168;20.878;2023-02-17T10:22:19;60.90;;;35.27;;
50483;SDS011;36409;52.168;20.878;2023-02-17T10:24:50;64.30;;;36.53;;
50483;SDS011;36409;52.168;20.878;2023-02-17T10:27:25;62.60;;;36.47;;
50483;SDS011;36409;52.168;20.878;2023-02-17T10:30:13;58.40;;;33.33;;
50483;SDS011;36409;52.168;20.878;2023-02-17T10:35:44;57.63;;;35.03;;
50483;SDS011;36409;52.168;20.878;2023-02-17T10:38:25;62.87;;;35.97;;
50483;SDS011;36409;52.168;20.878;2023-02-17T10:41:04;62.67;;;36.53;;
50483;SDS011;36409;52.168;20.878;2023-02-17T10:43:39;64.07;;;37.23;;
50483;SDS011;36409;52.168;20.878;2023-02-17T10:46:11;61.87;;;36.33;;
50483;SDS011;36409;52.168;20.878;2023-02-17T10:48:44;69.47;;;37.03;;
50483;SDS011;36409;52.168;20.878;2023-02-17T10:51:19;58.33;;;35.93;;
50483;SDS011;36409;52.168;20.878;2023-02-17T10:53:53;61.03;;;35.47;;
50483;SDS011;36409;52.168;20.878;2023-02-17T10:56:37;71.87;;;41.87;;
50483;SDS011;36409;52.168;20.878;2023-02-17T10:59:12;69.00;;;37.87;;
50483;SDS011;36409;52.168;20.878;2023-02-17T11:01:45;64.80;;;39.00;;
50483;SDS011;36409;52.168;20.878;2023-02-17T11:04:17;62.55;;;36.85;;
50483;SDS011;36409;52.168;20.878;2023-02-17T11:06:49;58.83;;;35.53;;
50483;SDS011;36409;52.168;20.878;2023-02-17T11:09:22;57.60;;;34.37;;
50483;SDS011;36409;52.168;20.878;2023-02-17T11:11:57;60.57;;;35.87;;
50483;SDS011;36409;52.168;20.878;2023-02-17T11:14:30;63.63;;;36.50;;
50483;SDS011;36409;52.168;20.878;2023-02-17T11:17:10;60.87;;;36.13;;
50483;SDS011;36409;52.168;20.878;2023-02-17T11:19:53;62.77;;;37.30;;
50483;SDS011;36409;52.168;20.878;2023-02-17T11:22:32;69.07;;;39.93;;
50483;SDS011;36409;52.168;20.878;2023-02-17T11:25:05;59.07;;;34.93;;
50483;SDS011;36409;52.168;20.878;2023-02-17T11:27:51;55.97;;;34.40;;
50483;SDS011;36409;52.168;20.878;2023-02-17T11:30:23;55.00;;;33.25;;
50483;SDS011;36409;52.168;20.878;2023-02-17T11:32:55;59.55;;;33.70;;
50483;SDS011;36409;52.168;20.878;2023-02-17T11:35:25;57.63;;;33.03;;
50483;SDS011;36409;52.168;20.878;2023-02-17T11:38:10;58.93;;;34.17;;
50483;SDS011;36409;52.168;20.878;2023-02-17T11:40:50;61.63;;;35.40;;
50483;SDS011;36409;52.168;20.878;2023-02-17T11:43:24;53.10;;;32.87;;
50483;SDS011;36409;52.168;20.878;2023-02-17T11:45:59;54.33;;;33.60;;
50483;SDS011;36409;52.168;20.878;2023-02-17T11:48:41;54.70;;;32.07;;
50483;SDS011;36409;52.168;20.878;2023-02-17T11:51:40;56.03;;;34.50;;
50483;SDS011;36409;52.168;20.878;2023-02-17T11:54:22;54.37;;;34.97;;
50483;SDS011;36409;52.168;20.878;2023-02-17T11:56:58;54.87;;;34.03;;
50483;SDS011;36409;52.168;20.878;2023-02-17T12:05:59;52.90;;;32.80;;
50483;SDS011;36409;52.168;20.878;2023-02-17T12:08:39;57.10;;;33.50;;
50483;SDS011;36409;52.168;20.878;2023-02-17T12:11:36;54.80;;;33.23;;
50483;SDS011;36409;52.168;20.878;2023-02-17T12:14:22;51.27;;;32.13;;
50483;SDS011;36409;52.168;20.878;2023-02-17T12:17:11;51.07;;;31.67;;
50483;SDS011;36409;52.168;20.878;2023-02-17T12:19:47;52.20;;;33.57;;
50483;SDS011;36409;52.168;20.878;2023-02-17T12:22:24;57.60;;;32.90;;
50483;SDS011;36409;52.168;20.878;2023-02-17T12:25:05;51.93;;;31.67;;
50483;SDS011;36409;52.168;20.878;2023-02-17T12:27:53;54.93;;;32.83;;
50483;SDS011;36409;52.168;20.878;2023-02-17T12:30:35;51.07;;;30.47;;
50483;SDS011;36409;52.168;20.878;2023-02-17T12:33:22;47.27;;;29.20;;
50483;SDS011;36409;52.168;20.878;2023-02-17T12:36:02;56.13;;;30.63;;
50483;SDS011;36409;52.168;20.878;2023-02-17T12:38:38;53.73;;;30.43;;
50483;SDS011;36409;52.168;20.878;2023-02-17T12:41:12;49.30;;;30.75;;
50483;SDS011;36409;52.168;20.878;2023-02-17T12:43:48;53.27;;;30.13;;
50483;SDS011;36409;52.168;20.878;2023-02-17T12:46:22;48.00;;;28.95;;
50483;SDS011;36409;52.168;20.878;2023-02-17T12:48:54;44.45;;;27.93;;
50483;SDS011;36409;52.168;20.878;2023-02-17T12:51:27;47.17;;;27.30;;
50483;SDS011;36409;52.168;20.878;2023-02-17T12:54:11;48.70;;;28.90;;
50483;SDS011;36409;52.168;20.878;2023-02-17T12:56:53;44.80;;;27.83;;
50483;SDS011;36409;52.168;20.878;2023-02-17T12:59:30;43.57;;;25.40;;
50483;SDS011;36409;52.168;20.878;2023-02-17T13:02:03;37.80;;;25.93;;
50483;SDS011;36409;52.168;20.878;2023-02-17T13:04:36;43.13;;;26.03;;
50483;SDS011;36409;52.168;20.878;2023-02-17T13:07:30;35.40;;;24.30;;
50483;SDS011;36409;52.168;20.878;2023-02-17T13:10:19;37.77;;;23.37;;
50483;SDS011;36409;52.168;20.878;2023-02-17T13:12:57;37.13;;;24.77;;
50483;SDS011;36409;52.168;20.878;2023-02-17T13:15:29;38.97;;;23.90;;
50483;SDS011;36409;52.168;20.878;2023-02-17T13:18:05;36.47;;;24.73;;
50483;SDS011;36409;52.168;20.878;2023-02-17T13:20:50;38.87;;;23.60;;
50483;SDS011;36409;52.168;20.878;2023-02-17T13:23:32;34.57;;;22.87;;
50483;SDS011;36409;52.168;20.878;2023-02-17T13:26:07;37.73;;;23.23;;
50483;SDS011;36409;52.168;20.878;2023-02-17T13:28:45;43.07;;;24.43;;
50483;SDS011;36409;52.168;20.878;2023-02-17T13:31:19;38.90;;;22.90;;
50483;SDS011;36409;52.168;20.878;2023-02-17T13:33:51;38.17;;;23.07;;
50483;SDS011;36409;52.168;20.878;2023-02-17T13:36:32;39.50;;;24.50;;
50483;SDS011;36409;52.168;20.878;2023-02-17T13:39:04;37.97;;;23.40;;
50483;SDS011;36409;52.168;20.878;2023-02-17T13:41:53;36.03;;;23.07;;
50483;SDS011;36409;52.168;20.878;2023-02-17T13:44:31;43.53;;;25.40;;
50483;SDS011;36409;52.168;20.878;2023-02-17T13:47:02;39.93;;;24.33;;
50483;SDS011;36409;52.168;20.878;2023-02-17T13:49:34;40.53;;;24.70;;
50483;SDS011;36409;52.168;20.878;2023-02-17T13:52:09;34.20;;;23.17;;
50483;SDS011;36409;52.168;20.878;2023-02-17T13:54:53;37.13;;;22.77;;
50483;SDS011;36409;52.168;20.878;2023-02-17T13:57:26;40.60;;;23.07;;
50483;SDS011;36409;52.168;20.878;2023-02-17T14:00:06;41.03;;;22.87;;
50483;SDS011;36409;52.168;20.878;2023-02-17T14:02:46;38.70;;;23.33;;
50483;SDS011;36409;52.168;20.878;2023-02-17T14:05:25;40.47;;;24.50;;
50483;SDS011;36409;52.168;20.878;2023-02-17T14:08:03;37.80;;;23.40;;
50483;SDS011;36409;52.168;20.878;2023-02-17T14:10:38;41.03;;;23.47;;
50483;SDS011;36409;52.168;20.878;2023-02-17T14:13:08;44.37;;;26.10;;
50483;SDS011;36409;52.168;20.878;2023-02-17T14:15:48;37.50;;;23.10;;
50483;SDS011;36409;52.168;20.878;2023-02-17T14:18:28;43.60;;;25.60;;
50483;SDS011;36409;52.168;20.878;2023-02-17T14:21:03;41.27;;;22.30;;
50483;SDS011;36409;52.168;20.878;2023-02-17T14:23:43;38.73;;;23.13;;
50483;SDS011;36409;52.168;20.878;2023-02-17T14:26:14;37.67;;;22.83;;
50483;SDS011;36409;52.168;20.878;2023-02-17T14:28:56;36.80;;;23.03;;
50483;SDS011;36409;52.168;20.878;2023-02-17T14:31:27;40.43;;;23.57;;
50483;SDS011;36409;52.168;20.878;2023-02-17T14:33:59;41.25;;;25.05;;
50483;SDS011;36409;52.168;20.878;2023-02-17T14:36:32;39.13;;;23.63;;
50483;SDS011;36409;52.168;20.878;2023-02-17T14:39:03;39.40;;;22.80;;
50483;SDS011;36409;52.168;20.878;2023-02-17T14:41:34;34.87;;;23.03;;
50483;SDS011;36409;52.168;20.878;2023-02-17T14:44:02;44.05;;;27.00;;
50483;SDS011;36409;52.168;20.878;2023-02-17T14:46:34;43.53;;;26.77;;
50483;SDS011;36409;52.168;20.878;2023-02-17T14:49:06;40.27;;;25.20;;
50483;SDS011;36409;52.168;20.878;2023-02-17T14:51:36;42.23;;;25.13;;
50483;SDS011;36409;52.168;20.878;2023-02-17T14:54:09;43.03;;;27.67;;
50483;SDS011;36409;52.168;20.878;2023-02-17T14:56:43;41.83;;;26.23;;
50483;SDS011;36409;52.168;20.878;2023-02-17T14:59:19;61.57;;;35.97;;
50483;SDS011;36409;52.168;20.878;2023-02-17T15:01:50;55.07;;;33.00;;
50483;SDS011;36409;52.168;20.878;2023-02-17T15:04:19;42.17;;;25.07;;